Time;durP1;ratioP1;P1;durP2;ratioP2;P2;SDS_P1;SDS_P2;PMS_P1;PMS_P2;Temp;Humidity;BMP_temperature;BMP_pressure;BME280_temperature;BME280_humidity;BME280_pressure;Samples;Min_cycle;Max_cycle;Signal;HPM_P1;HPM_P2
2022/06/17 00:00:12;;;;;;;6.00;4.57;;;12.50;99.90;;;;;;5060114;28;20017;-49
2022/06/17 00:02:37;;;;;;;4.82;4.35;;;12.40;99.90;;;;;;5063102;28;20056;-52
2022/06/17 00:05:03;;;;;;;6.18;4.35;;;12.40;99.90;;;;;;5058965;28;20064;-49
2022/06/17 00:07:29;;;;;;;7.30;4.25;;;12.40;99.90;;;;;;5061590;28;20035;-49
2022/06/17 00:09:55;;;;;;;4.65;4.25;;;12.40;99.90;;;;;;5059862;28;20024;-50
2022/06/17 00:12:20;;;;;;;5.72;4.75;;;12.30;99.90;;;;;;5056051;28;20517;-51
2022/06/17 00:17:30;;;;;;;6.18;4.07;;;12.20;99.90;;;;;;5051279;28;20043;-48
2022/06/17 00:19:56;;;;;;;5.35;4.60;;;12.20;99.90;;;;;;5058815;28;20025;-49
2022/06/17 00:22:22;;;;;;;6.80;3.80;;;12.20;99.90;;;;;;5060428;28;20335;-52
2022/06/17 00:24:50;;;;;;;4.40;4.00;;;12.20;99.90;;;;;;5059685;28;20024;-50
2022/06/17 00:27:16;;;;;;;5.63;4.15;;;12.10;99.90;;;;;;5047794;28;20054;-50
2022/06/17 00:29:41;;;;;;;4.93;4.45;;;12.10;99.90;;;;;;5061202;28;20062;-48
2022/06/17 00:32:07;;;;;;;5.72;4.65;;;12.10;99.90;;;;;;5059600;28;20483;-52
2022/06/17 00:34:33;;;;;;;5.25;4.22;;;12.00;99.90;;;;;;5052676;28;20021;-51
2022/06/17 00:37:01;;;;;;;6.53;4.68;;;12.00;99.90;;;;;;5060724;28;20273;-50
2022/06/17 00:39:34;;;;;;;7.15;4.63;;;11.90;99.90;;;;;;5055968;28;20025;-48
2022/06/17 00:42:05;;;;;;;6.70;4.82;;;11.90;99.90;;;;;;5057064;28;20028;-49
2022/06/17 00:44:54;;;;;;;5.30;4.80;;;11.90;99.90;;;;;;5055338;28;20021;-49
2022/06/17 00:47:31;;;;;;;5.43;4.13;;;11.90;99.90;;;;;;5060337;28;20071;-49
2022/06/17 00:50:26;;;;;;;6.20;5.63;;;11.90;99.90;;;;;;5059907;28;20118;-51
2022/06/17 00:53:02;;;;;;;6.57;5.32;;;11.80;99.90;;;;;;5054487;28;20469;-52
2022/06/17 00:55:40;;;;;;;;;;;11.80;99.90;;;;;;5062388;28;20548;-54
2022/06/17 00:58:29;;;;;;;9.52;5.65;;;11.80;99.90;;;;;;5058842;28;20382;-49
2022/06/17 01:00:59;;;;;;;6.80;5.45;;;11.80;99.90;;;;;;5057226;28;20036;-49
2022/06/17 01:03:28;;;;;;;6.13;5.50;;;11.80;99.90;;;;;;5058364;28;20082;-48
2022/06/17 01:06:02;;;;;;;5.85;4.97;;;11.70;99.90;;;;;;5060404;28;20036;-50
2022/06/17 01:11:17;;;;;;;6.90;5.85;;;11.60;99.90;;;;;;5059123;28;20077;-49
2022/06/17 01:13:47;;;;;;;8.77;6.18;;;11.60;99.90;;;;;;5059502;28;20028;-48
2022/06/17 01:16:14;;;;;;;10.70;6.32;;;11.60;99.90;;;;;;5059369;28;20017;-49
2022/06/17 01:18:44;;;;;;;9.38;6.20;;;11.60;99.90;;;;;;5060866;28;20028;-51
2022/06/17 01:21:20;;;;;;;11.25;7.65;;;11.60;99.90;;;;;;5057260;28;20029;-48
2022/06/17 01:23:48;;;;;;;7.03;5.90;;;11.50;99.90;;;;;;5062941;28;20025;-50
2022/06/17 01:26:15;;;;;;;10.65;6.97;;;11.50;99.90;;;;;;5057415;28;20479;-52
2022/06/17 01:28:41;;;;;;;6.78;6.13;;;11.50;99.90;;;;;;5063420;28;20070;-49
2022/06/17 01:31:07;;;;;;;7.60;6.90;;;11.40;99.90;;;;;;5056688;28;20020;-48
2022/06/17 01:33:36;;;;;;;7.70;6.35;;;11.40;99.90;;;;;;5062282;28;20056;-49
2022/06/17 01:36:25;;;;;;;8.60;7.15;;;11.40;99.90;;;;;;5058655;28;20455;-49
2022/06/17 01:38:57;;;;;;;7.20;6.47;;;11.40;99.90;;;;;;5053827;28;20621;-52
2022/06/17 01:41:25;;;;;;;7.70;6.88;;;11.30;99.90;;;;;;5061531;28;20021;-53
2022/06/17 01:43:56;;;;;;;10.02;7.97;;;11.30;99.90;;;;;;5053946;28;20024;-52
2022/06/17 01:46:40;;;;;;;7.75;6.90;;;11.30;99.90;;;;;;5064022;28;20108;-50
2022/06/17 01:49:09;;;;;;;6.93;6.10;;;11.20;99.90;;;;;;5058243;28;20096;-51
2022/06/17 01:51:38;;;;;;;9.13;7.25;;;11.20;99.90;;;;;;5059956;28;20029;-50
2022/06/17 01:54:09;;;;;;;8.75;7.10;;;11.20;99.90;;;;;;5058907;28;20033;-49
2022/06/17 01:56:38;;;;;;;9.35;7.07;;;11.20;99.90;;;;;;5059066;28;20055;-50
2022/06/17 01:59:12;;;;;;;9.50;7.03;;;11.10;99.90;;;;;;5058886;28;20025;-53
2022/06/17 02:01:42;;;;;;;9.25;6.88;;;11.10;99.90;;;;;;5055951;28;20056;-50
2022/06/17 02:04:30;;;;;;;10.30;7.15;;;11.10;99.90;;;;;;5061852;28;20021;-49
2022/06/17 02:07:23;;;;;;;11.73;7.32;;;11.10;99.90;;;;;;5056184;28;20043;-49
2022/06/17 02:09:49;;;;;;;8.52;7.28;;;11.10;99.90;;;;;;5061801;28;20075;-48
2022/06/17 02:12:18;;;;;;;9.35;7.97;;;11.00;99.90;;;;;;5057343;28;20021;-49
2022/06/17 02:14:45;;;;;;;7.72;6.93;;;11.00;99.90;;;;;;5064514;28;20028;-49
2022/06/17 02:17:11;;;;;;;8.35;7.20;;;11.00;99.90;;;;;;5058216;28;20025;-50
2022/06/17 02:19:40;;;;;;;8.55;7.15;;;11.00;99.90;;;;;;5065415;28;20673;-51
2022/06/17 02:22:09;;;;;;;8.85;7.55;;;11.00;99.90;;;;;;5060361;28;20534;-51
2022/06/17 02:24:38;;;;;;;8.88;7.50;;;10.90;99.90;;;;;;5066304;28;20040;-54
2022/06/17 02:27:07;;;;;;;11.80;8.85;;;10.90;99.90;;;;;;5061278;28;20021;-51
2022/06/17 02:29:35;;;;;;;8.18;7.43;;;10.90;99.90;;;;;;5059912;28;20029;-50
2022/06/17 02:32:05;;;;;;;11.07;7.68;;;10.90;99.90;;;;;;5065857;28;20025;-51
2022/06/17 02:34:30;;;;;;;9.38;7.63;;;10.80;99.90;;;;;;5059651;28;20025;-51
2022/06/17 02:37:10;;;;;;;10.40;7.57;;;10.80;99.90;;;;;;5067119;28;20029;-49
2022/06/17 02:39:42;;;;;;;10.30;8.55;;;10.80;99.90;;;;;;5059752;28;20025;-50
2022/06/17 02:42:25;;;;;;;10.98;7.28;;;10.80;99.90;;;;;;5062368;28;20035;-50
2022/06/17 02:44:58;;;;;;;8.55;7.55;;;10.80;99.90;;;;;;5060904;28;20013;-49
2022/06/17 02:47:25;;;;;;;11.80;8.50;;;10.80;99.90;;;;;;5061873;28;20024;-48
2022/06/17 02:49:52;;;;;;;9.00;8.10;;;10.80;99.90;;;;;;5061726;28;20098;-49
2022/06/17 02:52:30;;;;;;;9.10;8.20;;;10.80;99.90;;;;;;5062622;28;20008;-52
2022/06/17 02:55:00;;;;;;;10.60;8.52;;;10.80;99.90;;;;;;5062464;28;20406;-51
2022/06/17 02:57:28;;;;;;;9.52;7.63;;;10.70;99.90;;;;;;5062866;28;20479;-53
2022/06/17 03:00:10;;;;;;;10.75;7.88;;;10.70;99.90;;;;;;5059413;28;20036;-51
2022/06/17 03:03:01;;;;;;;8.95;8.00;;;10.70;99.90;;;;;;5062405;28;20091;-51
2022/06/17 03:05:30;;;;;;;8.82;7.93;;;10.70;99.90;;;;;;5057190;28;20036;-50
2022/06/17 03:07:57;;;;;;;9.80;8.75;;;10.70;99.90;;;;;;5060267;28;20111;-51
2022/06/17 03:10:30;;;;;;;9.75;8.05;;;10.70;99.90;;;;;;5058025;28;20057;-50
2022/06/17 03:13:01;;;;;;;10.55;8.35;;;10.60;99.90;;;;;;5064993;28;20028;-49
2022/06/17 03:15:27;;;;;;;9.93;8.93;;;10.60;99.90;;;;;;5059298;28;20024;-49
2022/06/17 03:17:53;;;;;;;12.35;9.05;;;10.60;99.90;;;;;;5066270;28;20046;-52
2022/06/17 03:20:30;;;;;;;9.32;8.43;;;10.50;99.90;;;;;;5057765;28;20016;-51
2022/06/17 03:23:00;;;;;;;8.90;8.02;;;10.50;99.90;;;;;;5066689;28;20020;-52
2022/06/17 03:25:40;;;;;;;12.43;8.50;;;10.50;99.90;;;;;;5058768;28;20021;-53
2022/06/17 03:28:13;;;;;;;9.70;8.38;;;10.50;99.90;;;;;;5061235;28;20053;-52
2022/06/17 03:30:50;;;;;;;12.32;8.57;;;10.50;99.90;;;;;;5061823;28;20033;-49
2022/06/17 03:33:45;;;;;;;11.60;8.65;;;10.50;99.90;;;;;;5047527;28;20051;-52
2022/06/17 03:36:19;;;;;;;10.25;8.00;;;10.50;99.90;;;;;;5055250;28;20040;-52
2022/06/17 03:38:55;;;;;;;9.15;8.23;;;10.40;99.90;;;;;;5062045;28;20024;-50
2022/06/17 03:41:20;;;;;;;;;;;10.50;99.90;;;;;;5062226;28;20047;-48
2022/06/17 03:43:55;;;;;;;9.03;7.37;;;10.50;99.90;;;;;;5062095;28;19904;-51
2022/06/17 03:46:25;;;;;;;7.68;6.85;;;10.50;99.90;;;;;;5054039;28;20502;-52
2022/06/17 03:49:01;;;;;;;9.18;7.70;;;10.50;99.90;;;;;;5061726;28;20039;-53
2022/06/17 03:51:28;;;;;;;9.73;8.15;;;10.50;99.90;;;;;;5054962;28;20030;-49
2022/06/17 03:53:53;;;;;;;9.48;7.97;;;10.60;99.90;;;;;;5061433;28;20029;-52
2022/06/17 03:56:26;;;;;;;9.13;6.95;;;10.60;99.90;;;;;;5062624;28;20631;-47
2022/06/17 03:58:55;;;;;;;9.38;7.82;;;10.60;99.90;;;;;;5061450;28;20024;-52
2022/06/17 04:01:33;;;;;;;10.00;7.82;;;10.60;99.90;;;;;;5056586;28;20444;-53
2022/06/17 04:04:06;;;;;;;9.77;7.65;;;10.70;99.90;;;;;;5063490;28;20651;-54
2022/06/17 04:06:38;;;;;;;7.63;6.93;;;10.70;99.90;;;;;;5058018;28;20109;-49
2022/06/17 04:09:19;;;;;;;9.80;8.00;;;10.70;99.90;;;;;;5065790;28;20017;-49
2022/06/17 04:12:13;;;;;;;9.70;8.52;;;10.80;99.90;;;;;;5055202;28;20025;-49
2022/06/17 04:15:16;;;;;;;10.52;7.65;;;10.80;99.90;;;;;;5051368;28;20041;-49
2022/06/17 04:17:44;;;;;;;9.52;7.13;;;10.80;99.90;;;;;;5057839;28;20054;-50
2022/06/17 04:20:34;;;;;;;11.07;8.13;;;10.80;99.90;;;;;;5058490;28;20017;-49
2022/06/17 04:23:20;;;;;;;9.63;7.47;;;10.80;99.90;;;;;;5065953;28;20028;-49
2022/06/17 04:26:01;;;;;;;8.70;7.45;;;10.90;99.90;;;;;;5055989;28;20025;-49
2022/06/17 04:28:32;;;;;;;8.40;7.50;;;10.90;99.90;;;;;;5048712;28;20115;-50
2022/06/17 04:31:06;;;;;;;9.25;7.40;;;10.90;99.90;;;;;;5055258;28;20021;-49
2022/06/17 04:33:47;;;;;;;8.50;7.47;;;10.90;99.90;;;;;;5061118;28;20025;-49
2022/06/17 04:36:19;;;;;;;8.30;7.50;;;11.00;99.90;;;;;;5060775;28;20016;-47
2022/06/17 04:38:53;;;;;;;9.20;7.45;;;11.00;99.90;;;;;;5059695;28;20029;-49
2022/06/17 04:41:22;;;;;;;9.20;8.23;;;11.00;99.90;;;;;;5059535;28;20067;-50
2022/06/17 04:43:52;;;;;;;8.98;8.02;;;11.10;99.90;;;;;;5059440;28;20487;-49
2022/06/17 04:46:28;;;;;;;9.75;7.80;;;11.10;99.90;;;;;;5059679;28;20032;-49
2022/06/17 04:48:57;;;;;;;10.35;8.18;;;11.10;99.90;;;;;;5060174;28;20543;-50
2022/06/17 04:51:24;;;;;;;12.75;9.18;;;11.20;99.90;;;;;;5060880;28;20032;-50
2022/06/17 04:53:51;;;;;;;10.82;9.73;;;11.30;99.90;;;;;;5060521;28;20491;-48
2022/06/17 04:56:47;;;;;;;12.23;8.63;;;11.30;99.90;;;;;;5051663;28;20031;-49
2022/06/17 04:59:34;;;;;;;11.68;8.80;;;11.40;99.90;;;;;;5056596;28;20441;-49
2022/06/17 05:02:03;;;;;;;15.18;11.30;;;11.50;99.90;;;;;;5058705;28;20021;-49
2022/06/17 05:04:29;;;;;;;11.32;10.13;;;11.50;99.90;;;;;;5061959;28;20369;-48
2022/06/17 05:06:55;;;;;;;13.55;11.55;;;11.60;99.90;;;;;;5057194;28;20009;-50
2022/06/17 05:09:37;;;;;;;13.48;10.73;;;11.70;99.90;;;;;;5064298;28;20032;-49
2022/06/17 05:12:07;;;;;;;13.70;11.20;;;11.80;99.90;;;;;;5056202;28;20147;-49
2022/06/17 05:14:52;;;;;;;13.13;11.27;;;11.90;99.90;;;;;;5060775;28;20137;-50
2022/06/17 05:17:18;;;;;;;15.48;11.95;;;11.90;99.90;;;;;;5057833;28;20105;-50
2022/06/17 05:19:44;;;;;;;13.75;10.90;;;12.10;99.90;;;;;;5060815;28;20056;-49
2022/06/17 05:22:34;;;;;;;11.05;9.98;;;12.20;99.90;;;;;;5059943;28;20083;-50
2022/06/17 05:25:02;;;;;;;14.13;11.60;;;12.30;99.90;;;;;;5059291;28;20077;-50
2022/06/17 05:27:28;;;;;;;15.43;12.13;;;12.40;99.90;;;;;;5057037;28;20056;-53
2022/06/17 05:29:54;;;;;;;14.38;12.20;;;12.50;99.90;;;;;;5062315;28;20024;-50
2022/06/17 05:32:20;;;;;;;14.95;12.85;;;12.60;99.90;;;;;;5056720;28;21561;-50
2022/06/17 05:34:47;;;;;;;14.05;12.25;;;12.80;99.90;;;;;;5063937;28;20021;-50
2022/06/17 05:37:13;;;;;;;13.82;12.27;;;12.90;99.90;;;;;;5059153;28;20020;-51
2022/06/17 05:39:38;;;;;;;17.42;13.00;;;13.10;99.90;;;;;;5067698;28;20095;-48
2022/06/17 05:42:05;;;;;;;15.02;13.48;;;13.20;99.90;;;;;;5060745;28;20027;-52
2022/06/17 05:44:31;;;;;;;15.45;13.85;;;13.40;99.90;;;;;;5060983;28;20025;-54
2022/06/17 05:46:57;;;;;;;14.63;13.13;;;13.60;99.90;;;;;;5067584;28;20563;-50
2022/06/17 05:49:23;;;;;;;19.98;17.85;;;13.80;99.90;;;;;;5060809;28;20021;-51
2022/06/17 05:51:48;;;;;;;18.33;16.42;;;14.00;99.90;;;;;;5066499;28;20553;-50
2022/06/17 05:54:14;;;;;;;20.58;16.55;;;14.10;99.90;;;;;;5055507;28;20033;-49
2022/06/17 05:56:39;;;;;;;21.20;17.17;;;14.40;99.90;;;;;;5066175;28;20486;-49
2022/06/17 05:59:05;;;;;;;19.00;16.00;;;14.50;99.90;;;;;;5061602;28;20032;-49
2022/06/17 06:01:31;;;;;;;17.08;14.55;;;14.70;99.90;;;;;;5060190;28;20021;-54
2022/06/17 06:03:56;;;;;;;16.90;15.02;;;14.90;99.90;;;;;;5065754;28;20142;-50
2022/06/17 06:06:22;;;;;;;19.70;14.93;;;15.00;99.90;;;;;;5060494;28;20036;-47
2022/06/17 06:08:47;;;;;;;14.73;13.23;;;15.30;99.90;;;;;;5066337;28;20035;-47
2022/06/17 06:11:13;;;;;;;14.50;12.98;;;15.40;99.90;;;;;;5055690;28;20028;-47
2022/06/17 06:13:39;;;;;;;16.48;14.25;;;15.60;99.90;;;;;;5063106;28;20143;-50
2022/06/17 06:16:04;;;;;;;15.25;13.23;;;15.80;99.90;;;;;;5062097;28;20536;-51
2022/06/17 06:18:34;;;;;;;15.68;14.05;;;16.00;99.90;;;;;;5065314;28;20040;-52
2022/06/17 06:21:04;;;;;;;19.27;13.93;;;16.10;99.90;;;;;;5061189;28;20021;-50
2022/06/17 06:23:29;;;;;;;14.43;12.93;;;16.30;99.90;;;;;;5065967;28;20396;-49
2022/06/17 06:25:55;;;;;;;13.70;11.40;;;16.50;99.90;;;;;;5060799;28;20036;-49
2022/06/17 06:28:24;;;;;;;15.43;10.93;;;16.60;99.90;;;;;;5063461;28;20017;-48
2022/06/17 06:31:26;;;;;;;11.95;10.57;;;16.70;99.90;;;;;;5061355;28;20024;-51
2022/06/17 06:33:52;;;;;;;10.70;7.68;;;17.00;99.90;;;;;;5058345;28;20047;-51
2022/06/17 06:36:18;;;;;;;8.70;6.28;;;17.20;99.90;;;;;;5063300;28;20487;-50
2022/06/17 06:38:44;;;;;;;8.80;6.60;;;17.30;99.90;;;;;;5063340;28;20032;-51
2022/06/17 06:41:09;;;;;;;7.32;5.85;;;17.50;99.90;;;;;;5063049;28;20028;-51
2022/06/17 06:43:35;;;;;;;8.98;6.32;;;17.70;99.90;;;;;;5056655;28;20025;-52
2022/06/17 06:46:10;;;;;;;6.43;5.70;;;17.90;99.90;;;;;;5060016;28;20087;-50
2022/06/17 06:48:36;;;;;;;7.30;5.28;;;18.00;99.90;;;;;;5062601;28;20127;-49
2022/06/17 06:51:02;;;;;;;7.53;5.95;;;18.10;99.90;;;;;;5062153;28;20525;-48
2022/06/17 06:53:27;;;;;;;6.68;5.68;;;18.40;99.90;;;;;;5062703;28;20123;-49
2022/06/17 06:55:53;;;;;;;8.30;6.03;;;18.50;99.90;;;;;;5061699;28;20491;-49
2022/06/17 06:58:21;;;;;;;5.75;5.15;;;18.60;99.90;;;;;;5063257;28;20150;-50
2022/06/17 07:00:49;;;;;;;6.15;4.50;;;18.80;99.90;;;;;;5063294;28;20055;-48
2022/06/17 07:03:17;;;;;;;4.82;4.35;;;18.90;99.90;;;;;;5060403;28;20517;-48
2022/06/17 07:05:45;;;;;;;11.05;5.43;;;19.10;99.90;;;;;;5061807;28;20388;-47
2022/06/17 07:08:13;;;;;;;4.55;3.90;;;19.30;99.90;;;;;;5060422;28;20052;-48
2022/06/17 07:10:39;;;;;;;6.93;3.72;;;19.40;99.90;;;;;;5055136;28;20027;-52
2022/06/17 07:13:08;;;;;;;4.25;3.88;;;19.60;99.90;;;;;;5065068;28;20063;-48
2022/06/17 07:15:34;;;;;;;5.30;4.00;;;19.80;99.90;;;;;;5058578;28;20021;-52
2022/06/17 07:18:23;;;;;;;6.15;3.90;;;19.90;99.90;;;;;;5064882;28;20065;-49
2022/06/17 07:20:54;;;;;;;6.38;3.90;;;20.00;99.90;;;;;;5055263;28;20020;-52
2022/06/17 07:23:24;;;;;;;5.93;4.30;;;20.20;99.90;;;;;;5066081;28;20116;-52
2022/06/17 07:25:50;;;;;;;5.50;3.80;;;20.40;99.90;;;;;;5059077;28;20021;-50
2022/06/17 07:28:19;;;;;;;5.65;3.55;;;20.60;99.90;;;;;;5062245;28;20055;-50
2022/06/17 07:30:47;;;;;;;6.38;4.30;;;20.80;99.90;;;;;;5061111;28;20032;-49
2022/06/17 07:33:13;;;;;;;6.00;4.00;;;21.00;98.30;;;;;;5061942;28;20063;-50
2022/06/17 07:35:40;;;;;;;4.70;3.47;;;21.10;99.30;;;;;;5062909;28;20419;-48
2022/06/17 07:40:59;;;;;;;5.47;2.78;;;21.30;98.10;;;;;;5062111;28;20039;-50
2022/06/17 07:43:25;;;;;;;3.67;2.63;;;21.40;96.30;;;;;;5061809;28;20418;-53
2022/06/17 07:45:51;;;;;;;3.25;2.65;;;21.60;96.60;;;;;;5060057;28;20021;-51
2022/06/17 07:48:18;;;;;;;3.17;2.30;;;21.80;97.00;;;;;;5062148;28;20085;-52
2022/06/17 07:50:44;;;;;;;4.53;2.58;;;21.80;96.00;;;;;;5060601;28;20029;-54
2022/06/17 07:53:11;;;;;;;5.78;3.30;;;22.00;94.90;;;;;;5061130;28;20055;-51
2022/06/17 07:55:37;;;;;;;4.78;2.22;;;22.10;93.30;;;;;;5062033;28;20016;-53
2022/06/17 07:58:04;;;;;;;4.40;2.38;;;22.20;94.10;;;;;;5060147;28;20032;-50
2022/06/17 08:00:36;;;;;;;6.85;2.65;;;22.40;93.00;;;;;;5061160;28;20032;-52
2022/06/17 08:03:02;;;;;;;3.55;2.20;;;22.60;93.10;;;;;;5059484;28;20020;-50
2022/06/17 08:05:30;;;;;;;4.30;2.88;;;22.70;92.90;;;;;;5061922;28;20052;-54
2022/06/17 08:07:56;;;;;;;2.80;2.25;;;22.80;91.40;;;;;;5059463;28;20028;-53
2022/06/17 08:10:26;;;;;;;3.90;2.65;;;22.80;91.80;;;;;;5058017;28;20020;-50
2022/06/17 08:12:51;;;;;;;4.05;2.40;;;22.70;91.00;;;;;;5064547;28;20073;-53
2022/06/17 08:15:17;;;;;;;3.92;2.35;;;22.90;91.40;;;;;;5058274;28;20494;-49
2022/06/17 08:17:43;;;;;;;4.28;2.33;;;23.10;92.80;;;;;;5064403;28;20040;-51
2022/06/17 08:20:22;;;;;;;2.85;2.17;;;23.40;90.20;;;;;;5058672;28;20021;-53
2022/06/17 08:22:48;;;;;;;2.67;2.25;;;23.60;90.70;;;;;;5065857;28;20013;-48
2022/06/17 08:25:13;;;;;;;4.15;2.50;;;23.80;90.40;;;;;;5057876;28;20013;-48
2022/06/17 08:27:54;;;;;;;3.00;2.08;;;23.90;89.30;;;;;;5057657;28;20048;-49
2022/06/17 08:30:23;;;;;;;4.65;2.50;;;24.10;89.80;;;;;;5052149;28;20033;-50
2022/06/17 08:32:53;;;;;;;3.45;2.20;;;24.10;87.10;;;;;;5057002;28;20025;-50
2022/06/17 08:35:21;;;;;;;2.83;2.47;;;24.10;86.50;;;;;;5064610;28;20021;-49
2022/06/17 08:37:50;;;;;;;3.65;2.50;;;24.20;86.70;;;;;;5057433;28;20566;-51
2022/06/17 08:40:48;;;;;;;4.30;2.03;;;24.10;87.60;;;;;;5049906;28;20027;-51
2022/06/17 08:43:22;;;;;;;3.58;2.30;;;24.00;83.80;;;;;;5055682;28;20012;-50
2022/06/17 08:46:13;;;;;;;1.45;1.35;;;24.00;84.20;;;;;;5059473;28;20052;-52
2022/06/17 08:48:39;;;;;;;2.50;1.80;;;24.00;87.20;;;;;;5056213;28;20031;-53
2022/06/17 08:51:40;;;;;;;2.95;1.67;;;23.80;87.00;;;;;;5060155;28;20037;-51
2022/06/17 08:54:26;;;;;;;3.92;1.85;;;23.50;85.90;;;;;;5058186;28;20028;-51
2022/06/17 08:57:07;;;;;;;3.25;1.90;;;23.20;87.80;;;;;;5062193;28;20127;-54
2022/06/17 09:00:11;;;;;;;3.60;1.95;;;23.20;85.80;;;;;;5056744;28;20029;-49
2022/06/17 09:02:51;;;;;;;2.83;1.60;;;23.10;87.10;;;;;;5050545;28;20039;-52
2022/06/17 09:05:20;;;;;;;2.25;1.70;;;22.90;86.60;;;;;;5060444;28;20017;-50
2022/06/17 09:08:18;;;;;;;4.57;2.28;;;22.90;89.90;;;;;;5059976;28;20031;-50
2022/06/17 09:11:03;;;;;;;3.08;1.70;;;22.90;87.40;;;;;;5022495;28;20061;-50
2022/06/17 09:13:50;;;;;;;2.75;1.77;;;23.10;90.00;;;;;;5056815;28;20095;-50
2022/06/17 09:16:31;;;;;;;3.00;1.73;;;22.90;89.20;;;;;;5050041;28;20017;-49
2022/06/17 09:19:02;;;;;;;3.15;2.50;;;23.00;90.40;;;;;;5063791;28;20029;-49
2022/06/17 09:21:35;;;;;;;2.05;1.85;;;23.10;88.30;;;;;;5064891;28;20029;-49
2022/06/17 09:24:07;;;;;;;4.18;2.50;;;23.10;90.50;;;;;;5064804;28;20032;-50
2022/06/17 09:27:04;;;;;;;2.92;2.28;;;23.20;89.50;;;;;;5065170;28;20024;-48
2022/06/17 09:29:44;;;;;;;3.97;2.05;;;23.40;90.00;;;;;;5057096;28;20040;-53
2022/06/17 09:32:26;;;;;;;4.30;2.60;;;23.70;90.90;;;;;;5061240;28;20028;-52
2022/06/17 09:35:04;;;;;;;3.25;2.13;;;23.80;87.80;;;;;;5068715;28;20518;-50
2022/06/17 09:37:47;;;;;;;3.83;2.47;;;23.80;88.60;;;;;;5061417;28;20036;-50
2022/06/17 09:40:24;;;;;;;3.65;2.22;;;24.00;89.20;;;;;;5069357;28;20020;-49
2022/06/17 09:43:01;;;;;;;4.47;2.08;;;24.20;86.50;;;;;;5060453;28;20092;-50
2022/06/17 09:45:36;;;;;;;4.07;2.45;;;24.20;86.00;;;;;;5063316;28;20382;-50
2022/06/17 09:48:09;;;;;;;2.30;1.77;;;24.30;87.80;;;;;;5065097;28;20025;-52
2022/06/17 09:50:54;;;;;;;4.95;2.58;;;24.20;85.60;;;;;;5064526;28;20093;-48
2022/06/17 09:53:30;;;;;;;5.03;2.35;;;24.10;87.60;;;;;;5054225;28;20043;-50
2022/06/17 09:56:04;;;;;;;4.20;2.35;;;24.10;87.60;;;;;;5063918;28;20036;-49
2022/06/17 09:58:55;;;;;;;3.03;2.67;;;24.00;88.70;;;;;;5064152;28;20140;-48
2022/06/17 10:01:21;;;;;;;4.85;2.13;;;23.60;87.50;;;;;;5058432;28;20037;-49
2022/06/17 10:03:47;;;;;;;2.50;2.22;;;23.70;89.40;;;;;;5067271;28;20027;-50
2022/06/17 10:06:29;;;;;;;2.50;2.30;;;23.60;87.70;;;;;;5060757;28;20025;-51
2022/06/17 10:09:32;;;;;;;3.88;2.65;;;23.60;87.10;;;;;;5067736;28;20060;-53
2022/06/17 10:12:10;;;;;;;3.72;2.65;;;23.70;87.10;;;;;;5056576;28;20079;-49
2022/06/17 10:15:00;;;;;;;5.55;3.00;;;23.80;86.40;;;;;;5063796;28;20394;-53
2022/06/17 10:20:51;;;;;;;3.63;2.75;;;23.70;87.20;;;;;;5054434;28;20106;-53
2022/06/17 10:23:23;;;;;;;2.95;2.67;;;23.70;86.70;;;;;;5067065;28;20483;-48
2022/06/17 10:25:55;;;;;;;4.93;2.97;;;23.90;87.20;;;;;;5060361;28;20535;-53
2022/06/17 10:28:55;;;;;;;5.53;3.25;;;23.90;88.60;;;;;;5049910;28;20032;-53
2022/06/17 10:31:33;;;;;;;4.35;3.50;;;23.90;86.90;;;;;;5052854;28;20025;-50
2022/06/17 10:34:03;;;;;;;3.65;3.00;;;23.90;87.10;;;;;;5062472;28;20020;-51
2022/06/17 10:36:31;;;;;;;3.97;2.65;;;23.90;86.30;;;;;;5063438;28;20035;-51
2022/06/17 10:39:00;;;;;;;4.90;3.10;;;23.90;85.60;;;;;;5064475;28;20025;-53
2022/06/17 10:41:26;;;;;;;2.95;2.15;;;23.90;83.20;;;;;;5061994;28;20031;-51
2022/06/17 10:43:52;;;;;;;4.20;2.30;;;24.00;87.20;;;;;;5062927;28;20037;-48
2022/06/17 10:46:25;;;;;;;2.70;2.30;;;24.10;83.00;;;;;;5061996;28;20558;-51
2022/06/17 10:49:02;;;;;;;3.75;2.67;;;24.10;84.50;;;;;;5062967;28;20024;-50
2022/06/17 10:51:29;;;;;;;5.13;2.25;;;24.10;83.30;;;;;;5057781;28;20731;-52
2022/06/17 10:54:03;;;;;;;3.67;2.60;;;24.10;85.10;;;;;;5062080;28;20032;-48
2022/06/17 10:56:39;;;;;;;4.03;2.75;;;24.10;84.60;;;;;;5065046;28;20074;-53
2022/06/17 10:59:08;;;;;;;;;;;23.90;85.10;;;;;;5061358;28;20021;-47
2022/06/17 11:01:46;;;;;;;3.65;2.47;;;23.90;84.20;;;;;;5059348;28;19932;-51
2022/06/17 11:04:24;;;;;;;2.90;2.70;;;23.80;82.60;;;;;;5066014;28;20497;-53
2022/06/17 11:06:59;;;;;;;3.95;2.53;;;23.90;83.20;;;;;;5056312;28;20024;-50
2022/06/17 11:09:35;;;;;;;6.43;2.30;;;24.00;83.20;;;;;;5065474;28;20075;-50
2022/06/17 11:12:03;;;;;;;4.63;2.20;;;24.00;82.70;;;;;;5057665;28;20033;-49
2022/06/17 11:14:48;;;;;;;3.03;2.40;;;24.00;80.00;;;;;;5062762;28;20518;-53
2022/06/17 11:17:43;;;;;;;3.90;2.53;;;23.90;81.50;;;;;;5060074;28;20028;-50
2022/06/17 11:20:25;;;;;;;3.70;1.98;;;23.90;80.40;;;;;;5060065;28;20025;-51
2022/06/17 11:22:53;;;;;;;3.92;2.30;;;24.00;79.90;;;;;;5066822;28;20054;-51
2022/06/17 11:25:25;;;;;;;4.85;2.10;;;23.80;81.70;;;;;;5059096;28;20507;-51
2022/06/17 11:27:58;;;;;;;3.17;2.13;;;23.70;80.90;;;;;;5058904;28;20033;-50
2022/06/17 11:30:26;;;;;;;2.88;2.10;;;23.70;82.70;;;;;;5063962;28;20029;-49
2022/06/17 11:32:52;;;;;;;3.13;2.33;;;23.80;80.90;;;;;;5058495;28;20017;-52
2022/06/17 11:35:28;;;;;;;3.63;2.10;;;23.60;78.20;;;;;;5065783;28;20024;-52
2022/06/17 11:37:56;;;;;;;3.50;2.17;;;23.70;80.60;;;;;;5056771;28;20017;-49
2022/06/17 11:40:24;;;;;;;3.38;2.63;;;23.70;82.40;;;;;;5065944;28;20546;-51
2022/06/17 11:43:00;;;;;;;3.92;2.03;;;23.60;80.00;;;;;;5058321;28;20196;-50
2022/06/17 11:45:37;;;;;;;5.15;2.70;;;23.60;82.00;;;;;;5062391;28;20017;-49
2022/06/17 11:48:17;;;;;;;5.55;2.55;;;23.60;81.20;;;;;;5057447;28;20393;-52
2022/06/17 11:51:04;;;;;;;3.25;2.15;;;23.70;82.60;;;;;;5062145;28;20013;-51
2022/06/17 11:53:31;;;;;;;2.28;1.88;;;23.70;82.10;;;;;;5054734;28;20032;-48
2022/06/17 11:55:58;;;;;;;2.22;1.80;;;23.80;84.00;;;;;;5060748;28;20021;-51
2022/06/17 11:58:24;;;;;;;2.50;1.90;;;23.80;84.30;;;;;;5060653;28;20024;-53
2022/06/17 12:00:55;;;;;;;3.28;1.90;;;23.90;84.80;;;;;;5061697;28;20142;-49
2022/06/17 12:03:33;;;;;;;6.10;2.40;;;24.00;84.80;;;;;;5053435;28;20074;-50
2022/06/17 12:06:05;;;;;;;3.33;2.10;;;24.10;82.00;;;;;;5060201;28;20348;-50
2022/06/17 12:08:42;;;;;;;4.85;2.13;;;24.00;83.40;;;;;;5057544;28;20028;-50
2022/06/17 12:11:14;;;;;;;4.13;2.30;;;23.90;82.70;;;;;;5053728;28;20029;-51
2022/06/17 12:13:54;;;;;;;5.47;1.85;;;23.90;84.00;;;;;;5060535;28;20083;-52
2022/06/17 12:16:28;;;;;;;3.13;2.33;;;23.90;84.90;;;;;;5047701;28;20063;-51
2022/06/17 12:18:57;;;;;;;4.45;2.30;;;23.90;84.70;;;;;;5060325;28;20495;-51
2022/06/17 12:21:25;;;;;;;4.78;2.40;;;23.90;84.00;;;;;;5061180;28;20020;-50
2022/06/17 12:23:50;;;;;;;3.47;2.97;;;23.90;83.30;;;;;;5061158;28;20032;-51
2022/06/17 12:27:23;;;;;;;2.67;2.22;;;23.90;83.90;;;;;;5061367;28;20013;-51
2022/06/17 12:30:01;;;;;;;3.70;2.50;;;23.80;86.20;;;;;;5018916;28;20118;-53
2022/06/17 12:32:48;;;;;;;3.53;2.60;;;23.90;85.70;;;;;;5015318;28;20455;-50
2022/06/17 12:35:21;;;;;;;3.72;1.83;;;23.90;84.40;;;;;;5046075;28;20033;-53
2022/06/17 12:38:21;;;;;;;2.92;2.22;;;23.90;84.20;;;;;;5057682;28;20089;-52
2022/06/17 12:40:54;;;;;;;3.30;2.35;;;23.80;84.00;;;;;;5027110;28;20554;-51
2022/06/17 12:43:29;;;;;;;2.88;2.20;;;24.00;86.30;;;;;;5048871;28;20025;-49
2022/06/17 12:46:10;;;;;;;4.72;2.22;;;24.00;88.70;;;;;;5058602;28;20514;-50
2022/06/17 12:55:09;;;;;;;3.75;2.67;;;24.20;85.50;;;;;;5055110;28;20031;-49
2022/06/17 12:57:43;;;;;;;9.05;2.83;;;24.40;83.40;;;;;;5062582;28;20033;-49
2022/06/17 13:00:40;;;;;;;8.40;2.92;;;24.50;85.70;;;;;;5060307;28;20116;-50
2022/06/17 13:03:28;;;;;;;6.45;2.85;;;24.70;83.10;;;;;;5058928;28;20032;-49
2022/06/17 13:05:56;;;;;;;3.33;2.55;;;24.70;84.60;;;;;;5064494;28;20020;-52
2022/06/17 13:08:43;;;;;;;2.78;2.30;;;24.70;78.70;;;;;;5061597;28;20081;-51
2022/06/17 13:11:22;;;;;;;4.32;2.80;;;24.50;82.20;;;;;;5053396;28;20028;-50
2022/06/17 13:14:17;;;;;;;3.50;2.80;;;24.30;81.80;;;;;;5059200;28;20658;-50
2022/06/17 13:17:13;;;;;;;2.65;2.33;;;24.30;81.60;;;;;;5053580;28;20028;-52
2022/06/17 13:19:48;;;;;;;4.75;3.28;;;24.60;80.60;;;;;;5056115;28;20028;-49
2022/06/17 13:22:42;;;;;;;5.32;3.40;;;24.60;80.80;;;;;;5058266;28;20024;-50
2022/06/17 13:25:23;;;;;;;3.50;2.50;;;24.60;82.30;;;;;;5058321;28;20129;-51
2022/06/17 13:27:56;;;;;;;6.03;2.90;;;24.80;81.90;;;;;;5053835;28;20113;-51
2022/06/17 13:30:55;;;;;;;4.60;2.70;;;24.80;82.10;;;;;;5062560;28;20016;-48
2022/06/17 13:33:28;;;;;;;3.38;3.08;;;24.80;80.10;;;;;;5047152;28;20047;-51